»·PEaware :: ASA51 KGEG-KBOI

ASA51 :: KGEG-KBOI

FLIGHT INFORMATION

Flight Status: Arrived
Operator:
Alaska Airlines
More flights by this operator :: More flights under this callsign
Pilot: Steve F. (26981)
Aircraft: BOEING 737-800
(B738)
More flights by this aircraft type
Origin: KGEG Spokane Intl
United States
Destination: KBOI Boise Air Terminal/Gowen
United States
More flights between these airports :: More routes between these airports
Route: +GEG6 SUMOQ BEWTE3
File this flight plan on PilotEdge
Remarks:
Altitude:
(Current/Filed)
25,000ft
Speed:
(Current/Filed)
430kts
Departed: 17-Sep-20 03:01 PM
Arrived: 17-Sep-20 03:49 PM
Distance/Time
Traveled:
249nm/0:48
Distance/Time
To Go:
Arrived

Flight Plot

Page will automatically refresh every two minutes.

Flight plan parsing failed; only flown route is shown


Map Options




Map Legend


Flown Route
Filed Route
Departure Airport
Arrival Airport
Navaid (VOR, NDB)
Fix

Horizontal Profiles

Position Reports

Time Latitude Longitude Heading Altitude Ground
Speed
17-Sep-20 14:41 47.624908 -117.536506 310 2380ft 0kts
17-Sep-20 14:42 47.624908 -117.536506 310 2380ft 0kts
17-Sep-20 14:43 47.624908 -117.536506 310 2380ft 0kts
17-Sep-20 14:44 47.624908 -117.536506 310 2380ft 0kts
17-Sep-20 14:45 47.624908 -117.536506 310 2380ft 0kts
17-Sep-20 14:47 47.624908 -117.536506 310 2380ft 0kts
17-Sep-20 14:48 47.624908 -117.536506 310 2380ft 0kts
17-Sep-20 14:49 47.624908 -117.536506 310 2380ft 0kts
17-Sep-20 14:50 47.624908 -117.536506 310 2380ft 0kts
17-Sep-20 14:51 47.624908 -117.536506 310 2380ft 0kts
17-Sep-20 14:52 47.624908 -117.536506 310 2380ft 0kts
17-Sep-20 14:53 47.624760 -117.535715 255 2380ft 1kts
17-Sep-20 14:54 47.624761 -117.535713 255 2380ft 0kts
17-Sep-20 14:55 47.624760 -117.535715 255 2380ft 0kts
17-Sep-20 14:56 47.624260 -117.536112 205 2380ft 11kts
17-Sep-20 14:57 47.621461 -117.537737 226 2380ft 18kts
17-Sep-20 14:58 47.617009 -117.544548 226 2380ft 22kts
17-Sep-20 14:59 47.614520 -117.545584 108 2380ft 10kts
17-Sep-20 15:00 47.614237 -117.543914 69 2380ft 9kts
17-Sep-20 15:01 47.634107 -117.513862 45 2720ft 186kts
17-Sep-20 15:02 47.673205 -117.453347 45 5563ft 218kts
17-Sep-20 15:03 47.718272 -117.381745 49 8064ft 251kts
17-Sep-20 15:03 47.760909 -117.314130 47 10021ft 281kts
17-Sep-20 15:05 47.828115 -117.209812 47 12520ft 325kts
17-Sep-20 15:06 47.851212 -117.088596 114 13433ft 342kts
17-Sep-20 15:06 47.788008 -117.019297 172 14770ft 371kts
17-Sep-20 15:07 47.683275 -117.000364 176 17352ft 384kts
17-Sep-20 15:09 47.556520 -116.982477 176 20100ft 400kts
17-Sep-20 15:09 47.462851 -116.970227 177 21803ft 412kts
17-Sep-20 15:10 47.346696 -116.955425 177 23661ft 424kts
17-Sep-20 15:11 47.227592 -116.940478 177 25024ft 436kts
17-Sep-20 15:12 47.107257 -116.925536 177 25043ft 433kts
17-Sep-20 15:13 46.986919 -116.910691 177 25051ft 433kts
17-Sep-20 15:14 46.866709 -116.895940 177 25055ft 433kts
17-Sep-20 15:15 46.746862 -116.881303 177 25057ft 432kts
17-Sep-20 15:16 46.626871 -116.866716 177 25038ft 432kts
17-Sep-20 15:17 46.506759 -116.852180 177 25014ft 432kts
17-Sep-20 15:18 46.387210 -116.837775 177 24991ft 432kts
17-Sep-20 15:19 46.267098 -116.823364 177 24984ft 432kts
17-Sep-20 15:20 46.147334 -116.809063 177 24995ft 432kts
17-Sep-20 15:21 46.027662 -116.794828 177 25000ft 431kts
17-Sep-20 15:22 45.907996 -116.780660 177 25015ft 432kts
17-Sep-20 15:23 45.787670 -116.766476 177 25032ft 432kts
17-Sep-20 15:24 45.668086 -116.752434 177 25041ft 433kts
17-Sep-20 15:25 45.547938 -116.738390 177 25053ft 433kts
17-Sep-20 15:26 45.427704 -116.724397 177 25069ft 433kts
17-Sep-20 15:27 45.307415 -116.710459 177 25083ft 433kts
17-Sep-20 15:28 45.187153 -116.696536 177 25096ft 433kts
17-Sep-20 15:29 45.067085 -116.682747 177 25103ft 434kts
17-Sep-20 15:30 44.946413 -116.668957 177 25110ft 434kts
17-Sep-20 15:31 44.826971 -116.641264 171 23705ft 432kts
17-Sep-20 15:32 44.711121 -116.610403 171 21415ft 414kts
17-Sep-20 15:33 44.599846 -116.581694 170 19216ft 400kts
17-Sep-20 15:34 44.492144 -116.554105 170 17009ft 385kts
17-Sep-20 15:35 44.388605 -116.527647 170 14896ft 372kts
17-Sep-20 15:36 44.288105 -116.502097 170 12904ft 365kts
17-Sep-20 15:37 44.189102 -116.476886 170 11280ft 345kts
17-Sep-20 15:38 44.098911 -116.454263 170 10523ft 308kts
17-Sep-20 15:39 44.019497 -116.434295 169 10505ft 277kts
17-Sep-20 15:40 43.947809 -116.415474 169 10263ft 245kts
17-Sep-20 15:41 43.882307 -116.398174 169 8939ft 242kts
17-Sep-20 15:42 43.816734 -116.380900 169 7599ft 237kts
17-Sep-20 15:43 43.752068 -116.364203 169 6209ft 234kts
17-Sep-20 15:44 43.689343 -116.348418 169 4963ft 219kts
17-Sep-20 15:45 43.633659 -116.333407 170 4359ft 179kts
17-Sep-20 15:46 43.595257 -116.302745 129 3858ft 160kts
17-Sep-20 15:47 43.573458 -116.246417 114 3021ft 166kts
17-Sep-20 15:48 43.561781 -116.212239 115 2879ft 17kts
17-Sep-20 15:49 43.563358 -116.212966 294 2879ft 17kts
17-Sep-20 15:50 43.566186 -116.220100 16 2879ft 8kts
17-Sep-20 15:51 43.566940 -116.219638 24 2879ft 0kts
17-Sep-20 15:52 43.566940 -116.219638 24 2879ft 0kts

Navigation Log

Ident Type
Flight plan parsing failed, navigation log unavailable